Time;durP1;ratioP1;P1;durP2;ratioP2;P2;SDS_P1;SDS_P2;PMS_P1;PMS_P2;Temp;Humidity;BMP_temperature;BMP_pressure;BME280_temperature;BME280_humidity;BME280_pressure;Samples;Min_cycle;Max_cycle;Signal;HPM_P1;HPM_P2
2022/10/04 00:01:58;;;;;;;10.15;7.03;;;;;;;12.99;75.78;102285.69;6121173;23;20021;-86
2022/10/04 00:04:40;;;;;;;10.63;8.00;;;;;;;12.95;76.06;102278.69;6121276;23;20445;-86
2022/10/04 00:07:17;;;;;;;12.98;7.78;;;;;;;12.80;76.60;102279.13;6121669;23;20430;-86
2022/10/04 00:09:51;;;;;;;9.23;7.13;;;;;;;12.81;76.87;102291.47;6120874;23;20073;-87
2022/10/04 00:12:40;;;;;;;14.82;7.90;;;;;;;12.82;76.85;102288.75;6119679;23;20044;-86
2022/10/04 00:15:19;;;;;;;14.73;7.63;;;;;;;12.77;77.22;102288.03;6123232;23;20005;-86
2022/10/04 00:18:16;;;;;;;15.82;9.98;;;;;;;12.66;77.78;102275.03;6121207;23;20006;-86
2022/10/04 00:20:52;;;;;;;12.18;8.95;;;;;;;12.49;78.46;102270.16;6111798;23;20390;-86
2022/10/04 00:23:23;;;;;;;13.38;7.95;;;;;;;12.47;78.20;102268.47;6120555;23;20010;-86
2022/10/04 00:25:59;;;;;;;12.07;7.85;;;;;;;12.52;77.85;102264.78;6120216;23;20014;-86
2022/10/04 00:28:25;;;;;;;10.23;7.22;;;;;;;12.56;77.09;102265.56;6121231;23;20377;-86
2022/10/04 00:31:11;;;;;;;11.30;7.15;;;;;;;12.63;76.45;102263.63;6119700;23;20036;-85
2022/10/04 00:33:41;;;;;;;16.80;7.90;;;;;;;12.55;77.72;102258.53;6123310;23;20009;-86
2022/10/04 00:36:24;;;;;;;10.88;7.10;;;;;;;12.52;77.44;102254.16;6121367;23;20010;-85
2022/10/04 00:39:08;;;;;;;11.60;7.65;;;;;;;12.36;78.39;102247.53;6121195;23;20014;-86
2022/10/04 00:41:56;;;;;;;12.05;8.02;;;;;;;12.31;78.15;102245.88;6120156;23;20093;-86
2022/10/04 00:44:50;;;;;;;12.23;7.70;;;;;;;12.26;78.29;102251.28;6120318;23;20097;-86
2022/10/04 00:47:45;;;;;;;11.60;7.85;;;;;;;12.17;78.79;102248.84;6120726;23;20323;-86
2022/10/04 00:50:24;;;;;;;13.15;7.25;;;;;;;12.10;78.46;102248.16;6120419;23;20009;-86
2022/10/04 00:52:56;;;;;;;13.30;7.75;;;;;;;12.14;78.65;102255.13;6121596;23;20049;-86
2022/10/04 00:55:33;;;;;;;14.68;7.88;;;;;;;12.13;78.95;102253.38;6120784;23;20322;-86
2022/10/04 00:58:01;;;;;;;11.68;7.53;;;;;;;12.10;78.64;102258.75;6122517;23;20060;-86
2022/10/04 01:00:32;;;;;;;12.10;8.43;;;;;;;12.07;79.10;102256.16;6122188;23;20053;-86
2022/10/04 01:03:02;;;;;;;12.27;7.53;;;;;;;11.96;79.40;102244.97;6120954;23;20076;-86
2022/10/04 01:05:33;;;;;;;9.90;7.78;;;;;;;12.01;78.16;102243.06;6122610;23;20005;-86
2022/10/04 01:08:13;;;;;;;13.07;7.20;;;;;;;12.12;78.74;102233.06;6121152;23;20037;-86
2022/10/04 01:10:48;;;;;;;13.15;7.45;;;;;;;12.12;78.89;102226.91;6122430;23;20363;-86
2022/10/04 01:13:23;;;;;;;13.98;8.15;;;;;;;12.07;78.83;102218.19;6121412;23;20322;-86
2022/10/04 01:16:03;;;;;;;16.85;8.30;;;;;;;11.98;78.87;102217.53;6121247;23;20002;-86
2022/10/04 01:18:34;;;;;;;13.23;7.70;;;;;;;11.87;79.39;102216.88;6120892;23;20461;-86
2022/10/04 01:21:22;;;;;;;10.70;7.78;;;;;;;11.77;79.64;102210.03;6121984;23;20006;-87
2022/10/04 01:23:55;;;;;;;12.27;7.10;;;;;;;11.74;79.66;102207.44;6121535;23;20482;-86
2022/10/04 01:26:33;;;;;;;6.50;5.68;;;;;;;11.81;78.57;102221.44;6121516;23;20438;-86
2022/10/04 01:29:08;;;;;;;9.65;6.25;;;;;;;11.84;77.61;102210.78;6120243;23;20030;-87
2022/10/04 01:31:36;;;;;;;8.68;6.30;;;;;;;11.77;78.73;102206.50;6121432;23;20434;-86
2022/10/04 01:34:04;;;;;;;7.82;6.47;;;;;;;11.71;79.19;102203.09;6120136;23;20009;-86
2022/10/04 01:36:30;;;;;;;11.25;6.28;;;;;;;11.69;77.33;102199.59;6119889;23;20493;-86
2022/10/04 01:38:56;;;;;;;9.70;6.22;;;;;;;11.55;77.87;102209.63;6122726;23;20028;-86
2022/10/04 01:41:44;;;;;;;10.88;6.43;;;;;;;11.51;78.48;102207.97;6121751;23;20426;-86
2022/10/04 01:44:37;;;;;;;9.25;6.90;;;;;;;11.48;78.93;102206.28;6121155;23;20006;-86
2022/10/04 01:47:08;;;;;;;8.68;6.45;;;;;;;11.54;78.34;102204.38;6113743;23;20174;-86
2022/10/04 01:49:37;;;;;;;10.30;6.63;;;;;;;11.55;77.59;102204.34;6122404;23;20060;-86
2022/10/04 01:52:09;;;;;;;8.10;6.82;;;;;;;11.52;78.28;102193.84;6120493;23;20005;-85
2022/10/04 01:54:48;;;;;;;13.13;8.00;;;;;;;11.47;78.74;102188.63;6120351;23;20002;-85
2022/10/04 01:57:21;;;;;;;11.35;7.38;;;;;;;11.32;79.76;102188.94;6119624;23;20073;-86
2022/10/04 02:00:04;;;;;;;12.18;7.25;;;;;;;11.33;79.26;102179.22;6119598;23;20006;-86
2022/10/04 02:02:39;;;;;;;8.95;6.35;;;;;;;11.40;79.54;102184.38;6118759;23;20045;-86
2022/10/04 02:05:07;;;;;;;13.75;6.93;;;;;;;11.33;80.33;102177.47;6122031;23;20006;-86
2022/10/04 02:07:35;;;;;;;11.48;7.10;;;;;;;11.31;80.22;102181.91;6121035;23;20085;-85
2022/10/04 02:10:06;;;;;;;8.35;7.30;;;;;;;11.26;80.51;102177.63;6121010;23;20371;-87
2022/10/04 02:12:33;;;;;;;10.13;6.47;;;;;;;11.29;80.36;102185.53;6119753;23;20006;-86
2022/10/04 02:15:02;;;;;;;8.43;5.80;;;;;;;11.31;79.94;102163.38;6120402;23;20430;-87
2022/10/04 02:17:31;;;;;;;9.70;6.30;;;;;;;11.25;79.94;102160.88;6119825;23;20018;-86
2022/10/04 02:20:00;;;;;;;10.13;6.75;;;;;;;11.21;80.13;102160.06;6122292;23;20486;-86
2022/10/04 02:22:25;;;;;;;5.63;5.13;;;;;;;11.26;80.03;102164.41;6120674;23;20001;-86
2022/10/04 02:24:54;;;;;;;11.45;6.32;;;;;;;11.18;79.78;102154.84;6121697;23;20013;-86
2022/10/04 02:27:26;;;;;;;8.40;6.80;;;;;;;11.12;79.18;102147.03;6121074;23;20033;-86
2022/10/04 02:29:51;;;;;;;7.38;5.65;;;;;;;11.04;79.88;102138.38;6119064;23;20442;-85
2022/10/04 02:35:02;;;;;;;8.73;6.18;;;;;;;11.08;79.19;102137.41;6121971;23;20354;-86
2022/10/04 02:37:28;;;;;;;7.03;6.13;;;;;;;11.12;79.33;102139.09;6119848;23;20006;-87
2022/10/04 02:40:03;;;;;;;12.07;6.47;;;;;;;11.05;80.00;102134.84;6119406;23;20009;-86
2022/10/04 02:42:53;;;;;;;12.35;8.15;;;;;;;11.06;79.03;102128.66;6120817;23;20437;-87
2022/10/04 02:45:27;;;;;;;9.02;8.10;;;;;;;11.01;79.87;102127.00;6121565;23;20005;-86
2022/10/04 02:47:59;;;;;;;10.77;7.50;;;;;;;10.95;78.88;102118.28;6119925;23;20020;-86
2022/10/04 02:50:30;;;;;;;;;;;;;;;11.10;77.90;102121.53;6120959;23;20122;-86
2022/10/04 02:53:08;;;;;;;12.38;7.55;;;;;;;10.93;79.36;102100.72;6121740;23;19908;-86
2022/10/04 02:55:34;;;;;;;13.45;6.93;;;;;;;10.87;79.46;102092.91;6119979;23;20008;-86
2022/10/04 02:58:00;;;;;;;13.25;8.82;;;;;;;10.89;79.60;102099.03;6120204;23;20006;-86
2022/10/04 03:00:31;;;;;;;14.88;8.55;;;;;;;10.84;79.44;102087.66;6118542;23;20073;-86
2022/10/04 03:03:07;;;;;;;13.60;8.38;;;;;;;10.82;80.49;102082.44;6121517;23;20012;-86
2022/10/04 03:05:34;;;;;;;13.85;8.38;;;;;;;10.77;79.96;102075.47;6122482;23;20438;-86
2022/10/04 03:08:00;;;;;;;14.35;9.57;;;;;;;10.73;81.38;102070.25;6121672;23;20434;-86
2022/10/04 03:10:26;;;;;;;15.98;9.77;;;;;;;10.73;80.66;102082.63;6123205;23;20032;-86
2022/10/04 03:12:52;;;;;;;12.93;9.38;;;;;;;10.73;79.93;102078.19;6123063;23;20030;-86
2022/10/04 03:15:18;;;;;;;15.05;9.10;;;;;;;10.64;80.11;102073.09;6122448;23;20075;-85
2022/10/04 03:17:44;;;;;;;16.98;9.60;;;;;;;10.67;80.28;102085.38;6121718;23;20018;-86
2022/10/04 03:20:15;;;;;;;19.25;10.25;;;;;;;10.64;81.57;102072.22;6123136;23;20010;-86
2022/10/04 03:22:44;;;;;;;14.00;9.20;;;;;;;10.63;81.03;102073.09;6123227;23;20438;-86
2022/10/04 03:25:17;;;;;;;18.52;9.70;;;;;;;10.59;80.33;102072.31;6123069;23;20006;-86
2022/10/04 03:27:43;;;;;;;18.15;9.75;;;;;;;10.49;79.51;102062.81;6120527;23;20005;-85
2022/10/04 03:30:12;;;;;;;15.25;10.48;;;;;;;10.46;79.32;102063.75;6122104;23;20403;-86
2022/10/04 03:32:38;;;;;;;15.10;9.02;;;;;;;10.46;81.27;102066.41;6122537;23;20006;-86
2022/10/04 03:35:07;;;;;;;14.02;10.85;;;;;;;10.41;81.97;102070.03;6120584;23;20010;-85
2022/10/04 03:37:37;;;;;;;18.67;9.48;;;;;;;10.34;82.15;102056.06;6122560;23;20538;-85
2022/10/04 03:40:06;;;;;;;14.60;9.50;;;;;;;10.32;81.37;102057.88;6119082;23;20025;-86
2022/10/04 03:42:35;;;;;;;14.25;9.65;;;;;;;10.33;80.98;102056.09;6119389;23;20006;-85
2022/10/04 03:45:05;;;;;;;19.70;10.18;;;;;;;10.34;82.05;102055.19;6121779;23;20378;-87
2022/10/04 03:47:34;;;;;;;11.90;9.50;;;;;;;10.28;80.84;102052.69;6122380;23;20411;-86
2022/10/04 03:50:05;;;;;;;14.25;9.18;;;;;;;10.23;80.08;102045.66;6123019;23;20489;-86
2022/10/04 03:52:33;;;;;;;11.20;8.45;;;;;;;10.25;80.27;102044.78;6122456;23;20024;-85
2022/10/04 03:55:05;;;;;;;15.38;9.70;;;;;;;10.23;79.98;102050.97;6121882;23;20455;-86
2022/10/04 03:57:31;;;;;;;12.70;8.95;;;;;;;10.21;80.11;102044.84;6121456;23;20441;-86
2022/10/04 03:59:58;;;;;;;14.80;10.07;;;;;;;10.17;80.89;102035.22;6122099;23;20002;-86
2022/10/04 04:02:42;;;;;;;14.23;9.40;;;;;;;10.20;81.22;102043.06;6119604;23;20328;-86
2022/10/04 04:05:30;;;;;;;12.02;8.60;;;;;;;10.21;79.69;102046.59;6119215;23;20485;-87
2022/10/04 04:08:22;;;;;;;13.90;8.60;;;;;;;10.22;80.73;102041.28;6120954;23;20013;-86
2022/10/04 04:10:51;;;;;;;13.67;8.80;;;;;;;10.19;80.43;102035.19;6122063;23;20006;-85
2022/10/04 04:13:27;;;;;;;12.00;8.68;;;;;;;10.12;79.78;102031.81;6121595;23;20006;-85
2022/10/04 04:15:54;;;;;;;13.70;8.60;;;;;;;10.11;79.45;102031.81;6120960;23;20435;-86
2022/10/04 04:18:23;;;;;;;16.00;8.63;;;;;;;10.12;80.78;102039.72;6121629;23;20006;-86
2022/10/04 04:20:50;;;;;;;16.13;9.60;;;;;;;10.15;81.06;102036.16;6122091;23;20009;-86
2022/10/04 04:23:27;;;;;;;12.10;8.85;;;;;;;10.16;81.24;102036.09;6119414;23;20093;-86
2022/10/04 04:25:55;;;;;;;12.10;8.27;;;;;;;10.10;79.37;102038.88;6122838;23;20067;-86
2022/10/04 04:28:32;;;;;;;16.58;9.40;;;;;;;10.12;80.17;102042.38;6121912;23;20005;-86
2022/10/04 04:31:16;;;;;;;14.10;9.63;;;;;;;10.21;80.51;102046.59;6120096;23;20386;-86
2022/10/04 04:33:46;;;;;;;14.25;8.82;;;;;;;10.13;81.15;102040.59;6119869;23;20002;-87
2022/10/04 04:36:14;;;;;;;13.57;8.68;;;;;;;10.13;79.96;102048.53;6122408;23;20081;-86
2022/10/04 04:39:32;;;;;;;12.57;8.35;;;;;;;10.12;79.37;102045.03;6120298;23;20008;-87
2022/10/04 04:41:27;;;;;;;14.85;9.10;;;;;;;10.13;81.15;102043.25;6121691;23;20041;-87
2022/10/04 04:43:53;;;;;;;12.85;8.50;;;;;;;10.14;80.38;102042.34;6119145;23;20016;-86
2022/10/04 04:46:20;;;;;;;13.02;8.95;;;;;;;10.10;81.08;102036.22;6121357;23;20442;-86
2022/10/04 04:48:48;;;;;;;15.02;8.77;;;;;;;10.09;80.63;102029.22;6122366;23;19998;-86
2022/10/04 04:51:23;;;;;;;16.23;8.88;;;;;;;10.12;81.40;102026.53;6119956;23;20013;-85
2022/10/04 04:53:50;;;;;;;11.55;8.57;;;;;;;10.11;81.36;102022.13;6121835;23;20329;-87
2022/10/04 04:56:20;;;;;;;13.15;9.45;;;;;;;10.15;81.66;102021.16;6121681;23;20009;-87
2022/10/04 04:58:47;;;;;;;15.48;9.20;;;;;;;10.10;81.97;102011.59;6121329;23;20423;-86
2022/10/04 05:01:35;;;;;;;12.43;9.25;;;;;;;10.20;81.77;102011.38;6120418;23;20017;-86
2022/10/04 05:04:17;;;;;;;13.50;9.88;;;;;;;10.16;81.62;102014.09;6121036;23;20005;-87
2022/10/04 05:06:45;;;;;;;10.77;8.38;;;;;;;10.18;81.96;102015.81;6120135;23;20028;-87
2022/10/04 05:09:26;;;;;;;13.52;9.25;;;;;;;10.27;81.55;102022.75;6121363;23;20029;-86
2022/10/04 05:11:55;;;;;;;14.50;9.07;;;;;;;10.20;81.08;102019.28;6119967;23;20061;-86
2022/10/04 05:14:20;;;;;;;12.20;8.68;;;;;;;10.27;80.92;102032.44;6121592;23;20138;-86
2022/10/04 05:16:51;;;;;;;14.70;8.45;;;;;;;10.23;81.04;102023.66;6119998;23;20006;-86
2022/10/04 05:19:29;;;;;;;11.48;8.27;;;;;;;10.18;81.14;102018.47;6120721;23;20002;-86
2022/10/04 05:21:56;;;;;;;12.25;8.73;;;;;;;10.15;81.96;102025.56;6121808;23;20006;-86
2022/10/04 05:24:26;;;;;;;12.88;9.10;;;;;;;10.06;81.84;102023.09;6120048;23;20012;-86
2022/10/04 05:26:55;;;;;;;15.13;10.20;;;;;;;10.01;81.20;102022.31;6120769;23;20473;-86
2022/10/04 05:29:25;;;;;;;15.75;9.50;;;;;;;9.99;81.46;102013.56;6119771;23;20453;-85
2022/10/04 05:32:12;;;;;;;13.80;8.38;;;;;;;9.95;80.60;102016.25;6120202;23;20006;-86
2022/10/04 05:34:40;;;;;;;14.32;8.82;;;;;;;9.90;81.21;102014.63;6105948;23;20497;-86
2022/10/04 05:37:27;;;;;;;12.80;8.65;;;;;;;9.86;81.99;102012.91;6116874;23;20339;-86
2022/10/04 05:39:59;;;;;;;13.68;7.95;;;;;;;9.84;80.92;102017.34;6118958;23;20378;-86
2022/10/04 05:42:46;;;;;;;12.52;8.85;;;;;;;9.82;80.60;102017.38;6120112;23;20005;-85
2022/10/04 05:45:18;;;;;;;17.52;8.88;;;;;;;9.79;81.82;102025.38;6119410;23;20021;-86
2022/10/04 05:47:47;;;;;;;14.10;8.23;;;;;;;9.78;81.02;102028.91;6120964;23;20486;-86
2022/10/04 05:50:20;;;;;;;13.77;7.90;;;;;;;9.79;81.33;102037.69;6121791;23;20006;-86
2022/10/04 05:52:47;;;;;;;11.60;7.90;;;;;;;9.79;80.72;102035.03;6119371;23;20464;-86
2022/10/04 05:55:46;;;;;;;16.48;9.02;;;;;;;9.84;82.28;102027.91;6119340;23;20101;-86
2022/10/04 05:58:48;;;;;;;16.85;8.60;;;;;;;9.88;81.83;102029.59;6120471;23;20002;-86
2022/10/04 06:01:16;;;;;;;15.13;8.43;;;;;;;9.84;82.18;102033.19;6117273;23;20044;-86
2022/10/04 06:04:08;;;;;;;12.32;8.38;;;;;;;9.83;81.87;102042.88;6119197;23;20285;-86
2022/10/04 06:06:48;;;;;;;13.32;8.65;;;;;;;9.86;81.70;102041.97;6118017;23;20109;-85
2022/10/04 06:09:14;;;;;;;17.13;8.68;;;;;;;9.90;81.18;102046.31;6142708;23;20030;-86
2022/10/04 06:12:01;;;;;;;12.15;7.60;;;;;;;9.95;81.71;102052.38;6120816;23;20002;-86
2022/10/04 06:14:45;;;;;;;12.55;8.00;;;;;;;9.95;81.16;102047.09;6120082;23;20422;-86
2022/10/04 06:17:39;;;;;;;16.25;7.18;;;;;;;9.99;82.01;102042.63;6121203;23;20009;-86
2022/10/04 06:20:04;;;;;;;11.32;7.15;;;;;;;10.06;81.31;102049.53;6119246;23;20081;-86
2022/10/04 06:22:31;;;;;;;11.05;7.07;;;;;;;10.04;81.56;102036.34;6120024;23;20374;-86
2022/10/04 06:25:13;;;;;;;12.63;7.30;;;;;;;10.16;81.77;102051.09;6118496;23;20012;-86
2022/10/04 06:27:40;;;;;;;12.77;7.18;;;;;;;10.20;82.26;102053.66;6121274;23;20029;-87
2022/10/04 06:30:14;;;;;;;14.05;8.00;;;;;;;10.25;81.67;102047.44;6120995;23;20056;-87
2022/10/04 06:33:01;;;;;;;12.02;7.35;;;;;;;10.34;81.70;102044.63;6122495;23;20010;-87
2022/10/04 06:35:32;;;;;;;14.07;8.93;;;;;;;10.33;81.94;102048.16;6121141;23;20002;-89
2022/10/04 06:38:05;;;;;;;10.93;8.10;;;;;;;10.39;82.03;102048.03;6119286;23;20382;-89
2022/10/04 06:40:55;;;;;;;13.70;6.80;;;;;;;10.48;81.18;102042.56;6121088;23;20315;-90
2022/10/04 06:43:35;;;;;;;13.80;8.10;;;;;;;10.55;81.66;102030.97;6147783;23;20006;-87
2022/10/04 06:46:28;;;;;;;13.38;6.90;;;;;;;10.64;81.06;102035.19;6123547;23;20410;-87
2022/10/04 06:49:08;;;;;;;10.32;6.38;;;;;;;10.61;81.12;102037.91;6122583;23;20009;-87
2022/10/04 06:52:03;;;;;;;12.90;6.72;;;;;;;10.59;81.21;102034.44;6123500;23;20006;-87
2022/10/04 06:54:38;;;;;;;11.80;6.72;;;;;;;10.66;80.69;102036.91;6094081;23;20426;-87
2022/10/04 06:57:31;;;;;;;9.88;6.72;;;;;;;10.68;80.41;102036.88;6122388;23;20033;-87
2022/10/04 07:00:12;;;;;;;14.40;6.75;;;;;;;10.66;80.58;102031.59;6122934;23;20006;-87
2022/10/04 07:02:48;;;;;;;10.70;6.93;;;;;;;10.65;80.68;102036.94;6122415;23;20516;-87
2022/10/04 07:05:30;;;;;;;12.68;7.57;;;;;;;10.64;80.87;102024.63;6121718;23;20461;-87
2022/10/04 07:08:29;;;;;;;11.18;6.85;;;;;;;10.68;80.81;102019.25;6121100;23;20063;-87
2022/10/04 07:10:57;;;;;;;14.27;6.80;;;;;;;10.64;81.16;102024.63;6120842;23;20008;-87
2022/10/04 07:13:44;;;;;;;11.27;6.47;;;;;;;10.63;80.88;102020.22;6121732;23;20013;-87
2022/10/04 07:16:09;;;;;;;9.77;6.07;;;;;;;10.61;80.98;102022.03;6121949;23;20006;-87
2022/10/04 07:18:43;;;;;;;9.97;6.50;;;;;;;10.62;81.08;102023.78;6122152;23;20006;-87
2022/10/04 07:21:14;;;;;;;12.07;6.60;;;;;;;10.67;81.36;102013.97;6122157;23;20244;-87
2022/10/04 07:23:49;;;;;;;15.60;6.35;;;;;;;10.76;81.08;102026.13;6122574;23;20057;-87
2022/10/04 07:26:42;;;;;;;16.30;7.15;;;;;;;10.86;80.72;102015.28;6122662;23;20013;-87
2022/10/04 07:29:26;;;;;;;17.60;5.85;;;;;;;10.85;81.20;102005.63;6121025;23;20034;-86
2022/10/04 07:32:04;;;;;;;12.50;5.93;;;;;;;10.97;80.65;102015.06;6122661;23;20013;-86
2022/10/04 07:34:53;;;;;;;12.23;6.30;;;;;;;11.07;80.28;102013.06;6121344;23;20065;-86
2022/10/04 07:37:20;;;;;;;13.13;5.95;;;;;;;11.11;80.58;102004.16;6107178;23;20489;-86
2022/10/04 07:40:17;;;;;;;10.40;6.65;;;;;;;11.31;79.72;102011.63;6120505;23;20006;-86
2022/10/04 07:43:00;;;;;;;14.50;7.38;;;;;;;11.46;81.28;102012.09;6120230;23;20031;-85
2022/10/04 07:45:32;;;;;;;11.27;6.47;;;;;;;11.66;79.73;102011.59;6121702;23;20012;-85
2022/10/04 07:48:16;;;;;;;13.80;6.72;;;;;;;11.98;78.90;102024.03;6121956;23;20014;-85
2022/10/04 07:50:58;;;;;;;13.27;6.45;;;;;;;12.35;77.35;102033.59;6122435;23;20006;-85
2022/10/04 07:53:30;;;;;;;12.30;6.53;;;;;;;12.76;75.12;102029.72;6121501;23;20018;-86
2022/10/04 07:56:01;;;;;;;13.52;6.82;;;;;;;13.19;74.43;102024.88;6123848;23;20732;-85
2022/10/04 07:59:03;;;;;;;11.82;6.00;;;;;;;13.50;73.76;102033.63;6120822;23;20427;-83
2022/10/04 08:01:42;;;;;;;10.68;5.70;;;;;;;13.86;70.40;102019.13;6121000;23;20109;-86
2022/10/04 08:04:13;;;;;;;11.45;5.65;;;;;;;14.13;71.21;102026.13;6122370;23;20029;-86
2022/10/04 08:06:59;;;;;;;10.02;4.38;;;;;;;14.58;69.06;102014.72;6122385;23;20068;-86
2022/10/04 08:09:33;;;;;;;7.45;4.70;;;;;;;15.00;68.01;102011.31;6121310;23;20005;-85
2022/10/04 08:12:20;;;;;;;9.50;4.97;;;;;;;15.31;68.27;102011.81;6122127;23;20446;-86
2022/10/04 08:15:12;;;;;;;11.13;5.03;;;;;;;15.61;67.07;102014.13;6119423;23;20327;-85
2022/10/04 08:17:49;;;;;;;8.32;4.45;;;;;;;15.89;64.73;102000.50;6120263;23;20014;-84
2022/10/04 08:20:42;;;;;;;8.27;4.30;;;;;;;16.06;64.66;102000.63;6122169;23;20053;-85
2022/10/04 08:23:32;;;;;;;7.97;4.55;;;;;;;16.37;62.82;102001.03;6120015;23;20006;-84
2022/10/04 08:25:57;;;;;;;8.95;4.70;;;;;;;16.55;60.77;102003.75;6118856;23;20032;-84
2022/10/04 08:32:03;;;;;;;6.15;4.22;;;;;;;17.43;60.19;102007.53;6120309;23;20289;-84
2022/10/04 08:35:00;;;;;;;9.20;3.72;;;;;;;18.16;58.14;102010.94;6117736;23;20379;-85
2022/10/04 08:37:57;;;;;;;7.32;3.97;;;;;;;18.12;58.04;102007.56;6120078;23;20006;-85
2022/10/04 08:40:42;;;;;;;9.85;4.50;;;;;;;17.99;58.73;102011.81;6120847;23;20164;-86
2022/10/04 08:43:33;;;;;;;9.82;4.38;;;;;;;17.49;58.15;102007.25;6119964;23;20358;-88
2022/10/04 08:46:02;;;;;;;10.65;4.03;;;;;;;18.25;56.49;102010.44;6121822;23;20045;-88
2022/10/04 08:48:28;;;;;;;8.63;4.38;;;;;;;19.10;53.61;102010.19;6120984;23;20010;-92
2022/10/04 08:51:31;;;;;;;9.10;4.57;;;;;;;19.91;53.34;102004.56;6121429;23;20449;-93
2022/10/04 08:54:02;;;;;;;8.70;4.40;;;;;;;20.66;49.12;102016.91;6121388;23;20250;-94
2022/10/04 08:56:49;;;;;;;8.88;4.28;;;;;;;21.13;49.78;102016.50;6121566;23;20096;-93
2022/10/04 08:59:34;;;;;;;8.07;4.22;;;;;;;21.25;47.28;102008.56;6122081;23;20037;-95
2022/10/04 09:02:23;;;;;;;9.35;4.45;;;;;;;21.85;48.19;102005.41;6122287;23;20442;-92
2022/10/04 09:05:10;;;;;;;11.95;4.38;;;;;;;22.66;44.93;102015.84;6121143;23;20088;-92
2022/10/04 09:07:53;;;;;;;11.23;4.40;;;;;;;23.46;43.58;102002.75;6119932;23;20010;-93
2022/10/04 09:10:27;;;;;;;8.40;4.28;;;;;;;23.84;41.96;102010.63;6120680;23;20006;-92
2022/10/04 09:13:12;;;;;;;9.88;4.47;;;;;;;23.91;42.24;102002.88;6121162;23;20430;-94
2022/10/04 09:15:51;;;;;;;7.22;4.38;;;;;;;24.96;41.70;102025.16;6122704;23;20017;-93
2022/10/04 09:18:49;;;;;;;7.57;4.40;;;;;;;25.09;40.32;102028.63;6120763;23;20006;-91
2022/10/04 09:21:15;;;;;;;6.97;3.92;;;;;;;24.78;37.76;102017.56;6122447;23;20006;-93
2022/10/04 09:24:18;;;;;;;8.90;4.87;;;;;;;25.87;40.12;102006.63;6120769;23;20518;-93
2022/10/04 09:27:32;;;;;;;9.05;4.25;;;;;;;25.59;40.44;101999.13;6122070;23;20245;-95
2022/10/04 09:30:21;;;;;;;6.78;4.35;;;;;;;26.07;38.81;102006.75;6114803;23;20025;-93
2022/10/04 09:33:37;;;;;;;9.45;4.03;;;;;;;26.38;35.30;102004.88;6122517;23;20005;-93
2022/10/04 09:36:40;;;;;;;8.80;4.38;;;;;;;26.82;36.72;101998.22;6075530;23;20327;-93
2022/10/04 09:39:20;;;;;;;7.93;3.95;;;;;;;26.12;35.68;101988.25;6120728;23;20013;-94
2022/10/04 09:42:04;;;;;;;6.05;3.90;;;;;;;26.67;35.00;101991.47;6122459;23;20005;-93
2022/10/04 09:44:54;;;;;;;7.00;3.88;;;;;;;27.18;33.61;102001.28;6119361;23;20091;-94
2022/10/04 09:47:36;;;;;;;5.95;3.95;;;;;;;26.51;33.63;101986.56;6121924;23;20455;-93
2022/10/04 09:50:23;;;;;;;5.90;3.97;;;;;;;26.40;35.82;101984.78;6123500;23;19998;-94
2022/10/04 09:53:19;;;;;;;8.45;4.07;;;;;;;27.16;34.06;101982.44;6122461;23;20014;-95
2022/10/04 09:56:17;;;;;;;9.57;4.80;;;;;;;27.84;35.58;101977.00;6122234;23;20002;-93
2022/10/04 09:58:45;;;;;;;7.70;3.95;;;;;;;27.87;32.56;101986.69;6125417;23;20006;-94
2022/10/04 10:01:28;;;;;;;8.68;3.90;;;;;;;29.04;32.29;101987.91;6125320;23;20221;-94
2022/10/04 10:04:35;;;;;;;7.88;3.88;;;;;;;30.06;29.14;101995.59;6125966;23;20010;-93
2022/10/04 10:07:20;;;;;;;8.20;4.45;;;;;;;29.60;30.55;101991.34;6010995;23;20008;-95
2022/10/04 10:13:39;;;;;;;7.15;3.70;;;;;;;30.44;29.00;101980.63;6125590;23;20021;-94
2022/10/04 10:16:39;;;;;;;8.77;3.80;;;;;;;30.35;28.71;101976.16;6126166;23;20065;-95
2022/10/04 10:19:20;;;;;;;6.65;4.40;;;;;;;31.28;29.41;101976.13;6125047;23;20033;-95
2022/10/04 10:21:58;;;;;;;6.50;3.92;;;;;;;32.25;28.61;101971.56;6126994;23;20006;-94
2022/10/04 10:25:00;;;;;;;6.30;3.38;;;;;;;32.54;28.31;101972.81;6127348;23;20418;-95
2022/10/04 10:27:47;;;;;;;7.90;3.65;;;;;;;30.85;28.75;101971.75;6128374;23;20002;-95
2022/10/04 10:30:21;;;;;;;5.85;3.13;;;;;;;29.72;29.43;101962.81;6131272;23;20028;-95
2022/10/04 10:33:25;;;;;;;4.55;3.00;;;;;;;30.11;29.43;101965.09;6135057;23;20006;-95
2022/10/04 10:36:24;;;;;;;6.07;3.38;;;;;;;30.52;29.17;101963.44;6131173;23;20002;-95
2022/10/04 10:39:06;;;;;;;9.00;3.38;;;;;;;31.48;28.22;101958.38;6130233;23;20006;-94
2022/10/04 10:41:46;;;;;;;5.78;3.55;;;;;;;32.20;26.13;101963.03;6125760;23;20016;-94
2022/10/04 10:44:35;;;;;;;5.35;3.70;;;;;;;32.68;25.72;101964.69;6123484;23;20490;-94
2022/10/04 10:47:33;;;;;;;8.68;4.20;;;;;;;30.88;29.12;101969.56;6119592;23;20006;-93
2022/10/04 10:50:06;;;;;;;8.05;3.80;;;;;;;29.55;29.89;101972.75;6118062;23;20009;-92
2022/10/04 10:53:06;;;;;;;9.23;3.25;;;;;;;29.73;27.56;101978.16;6124943;23;20069;-94
2022/10/04 10:56:02;;;;;;;6.03;3.38;;;;;;;29.04;28.88;101971.56;6104835;23;20101;-94
2022/10/04 10:58:56;;;;;;;9.20;3.92;;;;;;;28.51;31.78;101979.63;6113480;23;20037;-93
2022/10/04 11:02:03;;;;;;;7.50;3.83;;;;;;;30.03;30.15;101974.09;6122923;23;20021;-93
2022/10/04 11:04:48;;;;;;;8.68;3.97;;;;;;;29.82;29.56;101958.13;6118005;23;20006;-93
2022/10/04 11:07:40;;;;;;;7.15;3.70;;;;;;;28.09;30.81;101945.56;6119496;23;20465;-94
2022/10/04 11:10:38;;;;;;;7.22;3.17;;;;;;;28.21;32.39;101966.13;6121748;23;19998;-91
2022/10/04 11:13:36;;;;;;;4.03;3.17;;;;;;;28.56;30.84;101955.53;6122632;23;20022;-93
2022/10/04 11:16:16;;;;;;;4.22;3.05;;;;;;;29.38;30.06;101936.31;6122480;23;20375;-95
2022/10/04 11:19:19;;;;;;;5.80;3.00;;;;;;;29.99;29.13;101949.03;6119416;23;20037;-94
2022/10/04 11:22:07;;;;;;;6.05;3.53;;;;;;;29.01;28.49;101932.94;6121474;23;20005;-93
2022/10/04 11:24:59;;;;;;;5.90;3.78;;;;;;;27.89;30.50;101942.06;6119114;23;20010;-93
2022/10/04 11:27:33;;;;;;;8.47;3.43;;;;;;;27.62;31.78;101929.22;6123206;23;20080;-93
2022/10/04 11:30:09;;;;;;;6.47;3.63;;;;;;;27.82;31.99;101926.50;6125222;23;20002;-93
2022/10/04 11:32:44;;;;;;;5.65;3.20;;;;;;;28.22;30.36;101916.19;6124024;23;20006;-93
2022/10/04 11:35:28;;;;;;;7.20;3.35;;;;;;;27.91;32.33;101922.88;6124857;23;20081;-92
2022/10/04 11:38:19;;;;;;;7.22;3.30;;;;;;;27.79;32.66;101922.19;6124112;23;20006;-96
2022/10/04 11:41:24;;;;;;;6.65;3.20;;;;;;;27.43;32.86;101910.25;6126628;23;20010;-94
2022/10/04 11:44:28;;;;;;;7.60;3.35;;;;;;;27.32;32.38;101921.25;6115873;23;20006;-95
2022/10/04 11:47:20;;;;;;;9.25;3.33;;;;;;;27.27;33.49;101899.13;6128999;23;20797;-94
2022/10/04 11:50:14;;;;;;;6.78;3.17;;;;;;;27.62;32.61;101912.06;6124091;23;20419;-94
2022/10/04 11:53:02;;;;;;;7.20;3.45;;;;;;;27.31;32.81;101906.81;6121936;23;20104;-91
2022/10/04 11:55:46;;;;;;;6.05;3.20;;;;;;;26.84;32.62;101905.81;6122060;23;20002;-93
2022/10/04 11:58:34;;;;;;;7.80;3.10;;;;;;;26.10;34.79;101907.03;6122311;23;20064;-91
2022/10/04 12:01:03;;;;;;;5.00;2.67;;;;;;;25.91;34.06;101902.38;6113892;23;20017;-91
2022/10/04 12:03:44;;;;;;;6.50;2.60;;;;;;;26.32;34.83;101910.53;6122467;23;20021;-91
2022/10/04 12:06:18;;;;;;;6.20;2.90;;;;;;;25.61;35.10;101905.91;6126758;23;20052;-96
2022/10/04 12:09:04;;;;;;;7.05;3.33;;;;;;;25.31;35.49;101897.72;6137305;23;20002;-94
2022/10/04 12:14:56;;;;;;;7.45;3.20;;;;;;;24.71;35.97;101910.00;6134805;23;20020;-96
2022/10/04 12:18:02;;;;;;;4.45;2.80;;;;;;;24.65;36.45;101912.22;6133286;23;20465;-94
2022/10/04 12:20:55;;;;;;;7.30;3.80;;;;;;;24.36;36.49;101906.53;6127056;23;20068;-94
2022/10/04 12:23:36;;;;;;;4.05;2.80;;;;;;;23.98;37.28;101906.03;6123082;23;20006;-95
2022/10/04 12:26:49;;;;;;;5.80;3.00;;;;;;;24.36;38.13;101894.81;6119230;23;20397;-93
2022/10/04 12:29:33;;;;;;;5.63;3.25;;;;;;;24.09;37.18;101885.25;6031794;23;20098;-95
2022/10/04 12:32:24;;;;;;;4.53;2.90;;;;;;;23.77;37.65;101887.84;6119175;23;20413;-94